Time;durP1;ratioP1;P1;durP2;ratioP2;P2;SDS_P1;SDS_P2;PMS_P1;PMS_P2;Temp;Humidity;BMP_temperature;BMP_pressure;BME280_temperature;BME280_humidity;BME280_pressure;Samples;Min_cycle;Max_cycle;Signal;HPM_P1;HPM_P2
2021/12/22 00:00:27;;;;;;;5.10;2.92;;;;;;;;;;1799063;78;21563;-60
2021/12/22 00:02:54;;;;;;;4.60;2.45;;;;;;;;;;1806070;78;20930;-60
2021/12/22 00:05:24;;;;;;;4.78;2.72;;;;;;;;;;1810447;78;21737;-59
2021/12/22 00:07:51;;;;;;;4.70;2.80;;;;;;;;;;1798849;78;21523;-60
2021/12/22 00:10:18;;;;;;;5.87;3.20;;;;;;;;;;1797611;78;20887;-60
2021/12/22 00:12:45;;;;;;;5.08;3.25;;;;;;;;;;1817272;78;20890;-59
2021/12/22 00:15:11;;;;;;;5.17;2.50;;;;;;;;;;1811054;78;21504;-59
2021/12/22 00:17:39;;;;;;;5.03;3.02;;;;;;;;;;1763844;80;20832;-60
2021/12/22 00:20:06;;;;;;;4.00;2.40;;;;;;;;;;1800254;78;20905;-60
2021/12/22 00:22:32;;;;;;;3.75;2.83;;;;;;;;;;1810546;78;21037;-60
2021/12/22 00:24:59;;;;;;;5.10;2.58;;;;;;;;;;1773263;80;21499;-60
2021/12/22 00:27:25;;;;;;;3.70;2.25;;;;;;;;;;1808527;78;20953;-60
2021/12/22 00:29:52;;;;;;;2.83;2.02;;;;;;;;;;1798255;78;21153;-60
2021/12/22 00:32:19;;;;;;;2.98;2.12;;;;;;;;;;1804059;78;20934;-60
2021/12/22 00:34:54;;;;;;;3.40;2.35;;;;;;;;;;1773680;79;20871;-60
2021/12/22 00:37:20;;;;;;;2.87;1.92;;;;;;;;;;1807669;78;21514;-60
2021/12/22 00:39:47;;;;;;;2.55;1.52;;;;;;;;;;1799106;78;20946;-60
2021/12/22 00:42:13;;;;;;;2.37;1.90;;;;;;;;;;1772634;80;21223;-60
2021/12/22 00:44:43;;;;;;;2.45;1.72;;;;;;;;;;1810488;78;20970;-60
2021/12/22 00:47:10;;;;;;;1.92;1.37;;;;;;;;;;1804215;78;21024;-59
2021/12/22 00:49:36;;;;;;;2.52;1.70;;;;;;;;;;1800755;78;20918;-59
2021/12/22 00:52:03;;;;;;;3.55;2.20;;;;;;;;;;1772602;80;20932;-59
2021/12/22 00:54:29;;;;;;;2.20;1.60;;;;;;;;;;1817772;78;21161;-59
2021/12/22 00:57:01;;;;;;;4.30;1.80;;;;;;;;;;1770340;80;20993;-59
2021/12/22 00:59:23;;;;;;;2.90;1.90;;;;;;;;;;1806519;78;20980;-59
2021/12/22 01:01:49;;;;;;;1.85;1.62;;;;;;;;;;1805380;78;20917;-59
2021/12/22 01:04:16;;;;;;;3.10;1.92;;;;;;;;;;1811039;78;20862;-60
2021/12/22 01:06:42;;;;;;;2.30;1.67;;;;;;;;;;1796134;78;22238;-59
2021/12/22 01:09:10;;;;;;;2.35;1.70;;;;;;;;;;1798732;78;21005;-59
2021/12/22 01:11:36;;;;;;;2.00;1.40;;;;;;;;;;1801882;78;21010;-59
2021/12/22 01:14:03;;;;;;;2.22;1.67;;;;;;;;;;1800025;78;20926;-59
2021/12/22 01:16:31;;;;;;;2.55;2.00;;;;;;;;;;1815406;78;20965;-59
2021/12/22 01:19:01;;;;;;;3.60;1.75;;;;;;;;;;1803381;78;21974;-59
2021/12/22 01:21:36;;;;;;;2.52;1.50;;;;;;;;;;1807674;78;20977;-59
2021/12/22 01:24:02;;;;;;;2.58;1.70;;;;;;;;;;1778400;80;20997;-59
2021/12/22 01:26:30;;;;;;;;;;;;;;;;;;1817895;78;20930;-59
2021/12/22 01:28:56;;;;;;;2.12;1.75;;;;;;;;;;1811113;78;20420;-59
2021/12/22 01:31:23;;;;;;;4.10;2.00;;;;;;;;;;1811642;78;21148;-60
2021/12/22 01:33:49;;;;;;;2.70;1.70;;;;;;;;;;1816589;78;20835;-60
2021/12/22 01:36:15;;;;;;;3.77;2.65;;;;;;;;;;1799590;78;20917;-60
2021/12/22 01:38:41;;;;;;;6.20;4.15;;;;;;;;;;1799696;78;20927;-60
2021/12/22 01:41:07;;;;;;;11.05;6.95;;;;;;;;;;1813709;78;20938;-60
2021/12/22 01:43:33;;;;;;;11.50;9.25;;;;;;;;;;1815883;78;21228;-60
2021/12/22 01:51:34;;;;;;;9.65;6.75;;;;;;;;;;1804764;78;21047;-60
2021/12/22 01:54:03;;;;;;;8.90;5.22;;;;;;;;;;1809799;78;21519;-60
2021/12/22 01:56:32;;;;;;;6.92;4.42;;;;;;;;;;1810657;78;21787;-60
2021/12/22 01:59:00;;;;;;;5.10;4.00;;;;;;;;;;1806435;78;21024;-59
2021/12/22 02:01:27;;;;;;;4.28;2.92;;;;;;;;;;1810827;78;20953;-60
2021/12/22 02:03:54;;;;;;;3.30;2.42;;;;;;;;;;1814763;78;21543;-59
2021/12/22 02:06:41;;;;;;;3.20;2.65;;;;;;;;;;1792289;78;20968;-61
2021/12/22 02:11:59;;;;;;;3.75;2.60;;;;;;;;;;1804683;78;20907;-59
2021/12/22 02:14:26;;;;;;;3.67;2.40;;;;;;;;;;1816799;78;21412;-59
2021/12/22 02:16:52;;;;;;;3.10;2.40;;;;;;;;;;1769553;80;20982;-59
2021/12/22 02:19:18;;;;;;;3.58;2.72;;;;;;;;;;1807844;78;20820;-60
2021/12/22 02:21:51;;;;;;;4.67;4.08;;;;;;;;;;1797929;78;21993;-59
2021/12/22 02:24:13;;;;;;;7.03;5.35;;;;;;;;;;1819820;78;20926;-60
2021/12/22 02:26:48;;;;;;;8.08;7.03;;;;;;;;;;1809926;78;20910;-59
2021/12/22 02:29:19;;;;;;;7.87;7.08;;;;;;;;;;1799355;78;21002;-58
2021/12/22 02:31:43;;;;;;;8.13;6.97;;;;;;;;;;1798337;78;21389;-59
2021/12/22 02:34:06;;;;;;;9.78;7.15;;;;;;;;;;1765218;79;21453;-59
2021/12/22 02:36:39;;;;;;;9.35;7.53;;;;;;;;;;1774934;79;20930;-59
2021/12/22 02:39:00;;;;;;;10.80;8.70;;;;;;;;;;1730729;81;21577;-59
2021/12/22 02:41:29;;;;;;;10.75;8.23;;;;;;;;;;1796862;78;20890;-58
2021/12/22 02:44:14;;;;;;;9.30;7.47;;;;;;;;;;1764724;80;20906;-60
2021/12/22 02:46:58;;;;;;;9.63;6.90;;;;;;;;;;1802279;78;20965;-59
2021/12/22 02:49:43;;;;;;;6.50;5.60;;;;;;;;;;1784782;78;21036;-60
2021/12/22 02:52:09;;;;;;;7.78;5.12;;;;;;;;;;1800418;78;21014;-60
2021/12/22 02:54:42;;;;;;;4.90;3.50;;;;;;;;;;1764600;80;20902;-60
2021/12/22 02:57:18;;;;;;;5.62;4.58;;;;;;;;;;1805395;78;20965;-60
2021/12/22 02:59:50;;;;;;;6.35;3.35;;;;;;;;;;1803172;78;21160;-59
2021/12/22 03:02:17;;;;;;;4.80;3.72;;;;;;;;;;1762237;80;20966;-58
2021/12/22 03:04:50;;;;;;;5.53;3.10;;;;;;;;;;1798984;78;20890;-59
2021/12/22 03:07:15;;;;;;;4.45;3.40;;;;;;;;;;1797671;78;20989;-59
2021/12/22 03:09:41;;;;;;;5.00;3.72;;;;;;;;;;1819067;78;20938;-59
2021/12/22 03:12:10;;;;;;;5.33;3.92;;;;;;;;;;1812952;78;21770;-59
2021/12/22 03:14:38;;;;;;;8.25;5.95;;;;;;;;;;1765457;80;21045;-60
2021/12/22 03:17:05;;;;;;;7.10;5.87;;;;;;;;;;1800133;78;20894;-59
2021/12/22 03:19:34;;;;;;;10.20;7.43;;;;;;;;;;1813100;78;20985;-59
2021/12/22 03:22:04;;;;;;;9.18;7.12;;;;;;;;;;1775002;80;21024;-59
2021/12/22 03:24:31;;;;;;;8.55;6.37;;;;;;;;;;1799799;78;21153;-59
2021/12/22 03:27:01;;;;;;;8.38;5.60;;;;;;;;;;1803186;78;21009;-59
2021/12/22 03:29:26;;;;;;;8.13;4.80;;;;;;;;;;1807391;78;20977;-59
2021/12/22 03:31:52;;;;;;;6.70;4.57;;;;;;;;;;1803579;78;20946;-59
2021/12/22 03:34:18;;;;;;;8.17;5.03;;;;;;;;;;1801385;78;20874;-59
2021/12/22 03:36:45;;;;;;;7.60;5.33;;;;;;;;;;1763066;80;21156;-58
2021/12/22 03:39:12;;;;;;;10.23;5.87;;;;;;;;;;1806456;78;20916;-59
2021/12/22 03:41:39;;;;;;;8.47;4.90;;;;;;;;;;1807259;78;20871;-59
2021/12/22 03:44:06;;;;;;;8.03;4.90;;;;;;;;;;1807540;78;21029;-59
2021/12/22 03:46:32;;;;;;;6.00;3.57;;;;;;;;;;1802148;78;20988;-58
2021/12/22 03:48:58;;;;;;;5.20;3.07;;;;;;;;;;1808926;78;21772;-59
2021/12/22 03:51:27;;;;;;;4.43;3.57;;;;;;;;;;1804411;78;20874;-58
2021/12/22 03:53:53;;;;;;;6.63;4.10;;;;;;;;;;1805939;78;21559;-59
2021/12/22 03:56:19;;;;;;;4.63;2.97;;;;;;;;;;1810248;78;20931;-59
2021/12/22 03:59:04;;;;;;;5.50;3.67;;;;;;;;;;1813901;78;20938;-58
2021/12/22 04:01:48;;;;;;;4.90;3.00;;;;;;;;;;1807485;78;20977;-58
2021/12/22 04:04:17;;;;;;;5.57;2.97;;;;;;;;;;1806949;78;20949;-59
2021/12/22 04:06:44;;;;;;;4.73;3.10;;;;;;;;;;1816980;78;20919;-60
2021/12/22 04:09:11;;;;;;;5.07;3.73;;;;;;;;;;1814307;78;21029;-60
2021/12/22 04:11:37;;;;;;;6.00;3.83;;;;;;;;;;1810761;78;20866;-60
2021/12/22 04:14:04;;;;;;;6.33;3.90;;;;;;;;;;1808752;78;21153;-59
2021/12/22 04:16:30;;;;;;;5.53;3.73;;;;;;;;;;1805461;78;21554;-59
2021/12/22 04:19:15;;;;;;;6.53;3.77;;;;;;;;;;1777892;79;20938;-59
2021/12/22 04:21:41;;;;;;;7.13;4.47;;;;;;;;;;1778105;79;21092;-59
2021/12/22 04:24:07;;;;;;;7.10;4.20;;;;;;;;;;1772500;80;20884;-59
2021/12/22 04:26:35;;;;;;;8.60;5.10;;;;;;;;;;1804494;78;21153;-58
2021/12/22 04:29:01;;;;;;;6.63;4.73;;;;;;;;;;1824235;78;20918;-59
2021/12/22 04:31:27;;;;;;;11.00;4.93;;;;;;;;;;1801796;78;21423;-59
2021/12/22 04:33:53;;;;;;;7.10;4.70;;;;;;;;;;1764276;80;21037;-59
2021/12/22 04:36:19;;;;;;;8.17;6.00;;;;;;;;;;1802767;78;20918;-59
2021/12/22 04:38:56;;;;;;;11.33;5.87;;;;;;;;;;1769759;80;23235;-58
2021/12/22 04:41:22;;;;;;;10.03;6.03;;;;;;;;;;1768225;80;20966;-58
2021/12/22 04:43:48;;;;;;;9.43;6.23;;;;;;;;;;1804446;78;21460;-60
2021/12/22 04:46:14;;;;;;;14.23;6.03;;;;;;;;;;1806270;78;21552;-59
2021/12/22 04:48:41;;;;;;;7.83;5.67;;;;;;;;;;1807759;78;21073;-59
2021/12/22 04:51:14;;;;;;;9.63;6.22;;;;;;;;;;1806370;78;21192;-59
2021/12/22 04:53:46;;;;;;;10.80;5.93;;;;;;;;;;1805195;78;20969;-59
2021/12/22 04:56:04;;;;;;;9.60;5.67;;;;;;;;;;1808696;78;21004;-59
2021/12/22 04:58:30;;;;;;;7.80;5.33;;;;;;;;;;1813300;78;21045;-59
2021/12/22 05:00:57;;;;;;;10.37;5.87;;;;;;;;;;1775109;80;20997;-59
2021/12/22 05:03:23;;;;;;;12.37;6.57;;;;;;;;;;1810654;78;21137;-59
2021/12/22 05:05:49;;;;;;;9.67;6.20;;;;;;;;;;1815264;78;21053;-59
2021/12/22 05:08:17;;;;;;;13.53;6.97;;;;;;;;;;1776176;80;20910;-58
2021/12/22 05:10:44;;;;;;;12.23;6.27;;;;;;;;;;1811497;78;20985;-58
2021/12/22 05:13:10;;;;;;;13.77;6.90;;;;;;;;;;1825656;78;20894;-58
2021/12/22 05:15:39;;;;;;;12.37;6.50;;;;;;;;;;1807697;78;21125;-60
2021/12/22 05:18:20;;;;;;;11.27;6.87;;;;;;;;;;1808509;78;21488;-59
2021/12/22 05:20:39;;;;;;;11.80;7.23;;;;;;;;;;1764246;79;20887;-59
2021/12/22 05:23:05;;;;;;;9.03;5.43;;;;;;;;;;1806725;78;20934;-59
2021/12/22 05:25:32;;;;;;;12.20;6.27;;;;;;;;;;1776511;80;20891;-59
2021/12/22 05:27:59;;;;;;;9.33;5.93;;;;;;;;;;1811663;78;21622;-59
2021/12/22 05:30:26;;;;;;;8.87;6.10;;;;;;;;;;1808364;78;20878;-59
2021/12/22 05:32:54;;;;;;;9.50;5.90;;;;;;;;;;1772953;80;20934;-59
2021/12/22 05:35:20;;;;;;;7.40;5.73;;;;;;;;;;1734479;81;20954;-59
2021/12/22 05:37:46;;;;;;;9.03;6.60;;;;;;;;;;1736362;82;20899;-60
2021/12/22 05:40:17;;;;;;;10.17;7.37;;;;;;;;;;1733932;81;21952;-58
2021/12/22 05:42:44;;;;;;;7.77;6.43;;;;;;;;;;1769394;80;20979;-60
2021/12/22 05:45:10;;;;;;;9.20;6.67;;;;;;;;;;1769751;80;20877;-58
2021/12/22 05:47:36;;;;;;;7.97;6.40;;;;;;;;;;1765398;80;20901;-61
2021/12/22 05:50:05;;;;;;;8.43;6.30;;;;;;;;;;1725732;81;21011;-59
2021/12/22 05:52:33;;;;;;;7.83;7.03;;;;;;;;;;1771807;80;20975;-60
2021/12/22 05:54:59;;;;;;;9.07;6.30;;;;;;;;;;1764225;80;20979;-60
2021/12/22 05:57:25;;;;;;;8.97;6.03;;;;;;;;;;1766695;80;21452;-59
2021/12/22 05:59:52;;;;;;;11.40;6.10;;;;;;;;;;1768930;80;20935;-58
2021/12/22 06:02:18;;;;;;;7.90;5.50;;;;;;;;;;1734308;82;20933;-61
2021/12/22 06:04:44;;;;;;;8.50;4.83;;;;;;;;;;1764975;80;21887;-60
2021/12/22 06:07:10;;;;;;;7.90;5.70;;;;;;;;;;1774698;80;21240;-62
2021/12/22 06:09:36;;;;;;;8.13;5.33;;;;;;;;;;1729369;82;20918;-63
2021/12/22 06:12:03;;;;;;;8.33;5.80;;;;;;;;;;1736113;82;21678;-64
2021/12/22 06:14:30;;;;;;;8.23;6.40;;;;;;;;;;1713339;81;21482;-61
2021/12/22 06:16:56;;;;;;;13.30;6.90;;;;;;;;;;1723419;81;21097;-59
2021/12/22 06:19:22;;;;;;;11.53;8.43;;;;;;;;;;1767372;80;21077;-67
2021/12/22 06:21:49;;;;;;;14.27;8.20;;;;;;;;;;1767388;80;20874;-66
2021/12/22 06:24:16;;;;;;;14.07;8.93;;;;;;;;;;1767235;80;21106;-66
2021/12/22 06:26:42;;;;;;;13.43;9.00;;;;;;;;;;1739744;82;20942;-58
2021/12/22 06:29:08;;;;;;;13.77;7.63;;;;;;;;;;1731594;81;21054;-58
2021/12/22 06:31:34;;;;;;;9.57;6.57;;;;;;;;;;1769008;80;20978;-58
2021/12/22 06:34:00;;;;;;;9.10;5.57;;;;;;;;;;1804565;78;21847;-58
2021/12/22 06:36:28;;;;;;;12.50;6.23;;;;;;;;;;1800884;78;20965;-58
2021/12/22 06:38:55;;;;;;;8.43;5.27;;;;;;;;;;1796006;78;21096;-59
2021/12/22 06:41:21;;;;;;;11.57;6.20;;;;;;;;;;1800422;78;23298;-58
2021/12/22 06:43:47;;;;;;;9.37;5.97;;;;;;;;;;1802596;78;20958;-58
2021/12/22 06:46:13;;;;;;;12.13;6.85;;;;;;;;;;1764899;80;21490;-58
2021/12/22 06:48:39;;;;;;;9.30;6.62;;;;;;;;;;1796536;78;22015;-59
2021/12/22 06:51:06;;;;;;;12.63;8.00;;;;;;;;;;1802893;78;20926;-59
2021/12/22 06:53:36;;;;;;;18.65;9.83;;;;;;;;;;1801752;78;21148;-59
2021/12/22 06:56:02;;;;;;;19.75;10.15;;;;;;;;;;1768065;80;21017;-59
2021/12/22 06:58:28;;;;;;;14.47;9.03;;;;;;;;;;1796919;78;21313;-59
2021/12/22 07:00:54;;;;;;;15.70;9.25;;;;;;;;;;1801697;78;20962;-59
2021/12/22 07:03:39;;;;;;;19.05;8.83;;;;;;;;;;1799445;78;20909;-58
2021/12/22 07:06:23;;;;;;;13.62;9.23;;;;;;;;;;1801826;78;20934;-58
2021/12/22 07:08:49;;;;;;;15.10;9.03;;;;;;;;;;1799352;78;20843;-59
2021/12/22 07:11:15;;;;;;;14.33;8.98;;;;;;;;;;1763659;80;20919;-59
2021/12/22 07:13:42;;;;;;;14.33;9.58;;;;;;;;;;1803194;78;21002;-59
2021/12/22 07:16:08;;;;;;;14.07;9.00;;;;;;;;;;1807582;78;21476;-59
2021/12/22 07:18:34;;;;;;;14.05;8.43;;;;;;;;;;1798725;78;21145;-59
2021/12/22 07:21:00;;;;;;;12.90;8.60;;;;;;;;;;1801444;78;20985;-59
2021/12/22 07:23:27;;;;;;;14.80;9.03;;;;;;;;;;1801926;78;20890;-58
2021/12/22 07:25:53;;;;;;;11.80;8.68;;;;;;;;;;1805224;78;21068;-59
2021/12/22 07:28:19;;;;;;;13.32;8.50;;;;;;;;;;1801805;78;20871;-59
2021/12/22 07:31:04;;;;;;;12.10;8.45;;;;;;;;;;1797395;78;20927;-58
2021/12/22 07:33:31;;;;;;;12.45;8.63;;;;;;;;;;1798719;78;21005;-58
2021/12/22 07:36:02;;;;;;;12.68;7.97;;;;;;;;;;1805392;78;20910;-58
2021/12/22 07:38:37;;;;;;;12.43;8.65;;;;;;;;;;1765859;80;20941;-59
2021/12/22 07:41:04;;;;;;;11.73;8.97;;;;;;;;;;1797924;78;21016;-60
2021/12/22 07:43:30;;;;;;;9.80;7.90;;;;;;;;;;1802338;78;21436;-58
2021/12/22 07:45:57;;;;;;;12.43;8.50;;;;;;;;;;1802315;78;20989;-58
2021/12/22 07:48:41;;;;;;;9.65;8.18;;;;;;;;;;1800610;78;21016;-58
2021/12/22 07:51:26;;;;;;;11.22;8.15;;;;;;;;;;1801467;78;20941;-58
2021/12/22 07:53:52;;;;;;;10.38;8.15;;;;;;;;;;1803306;78;21456;-58
2021/12/22 07:56:18;;;;;;;10.68;8.50;;;;;;;;;;1801934;78;20989;-58
2021/12/22 07:58:44;;;;;;;9.13;7.58;;;;;;;;;;1765643;80;20978;-59
2021/12/22 08:01:10;;;;;;;11.55;7.62;;;;;;;;;;1812784;78;20871;-58
2021/12/22 08:03:36;;;;;;;11.30;7.67;;;;;;;;;;1806462;78;21698;-59
2021/12/22 08:06:02;;;;;;;11.88;7.50;;;;;;;;;;1797023;78;20961;-58
2021/12/22 08:08:29;;;;;;;7.13;6.07;;;;;;;;;;1795848;78;21110;-59
2021/12/22 08:10:55;;;;;;;9.55;6.47;;;;;;;;;;1800510;78;20981;-60
2021/12/22 08:13:22;;;;;;;8.55;6.65;;;;;;;;;;1825841;78;21574;-59
2021/12/22 08:15:48;;;;;;;9.18;6.42;;;;;;;;;;1801738;78;20934;-59
2021/12/22 08:18:14;;;;;;;8.63;6.65;;;;;;;;;;1800785;78;20902;-59
2021/12/22 08:20:40;;;;;;;12.88;7.15;;;;;;;;;;1776066;79;23346;-61
2021/12/22 08:23:06;;;;;;;9.38;7.15;;;;;;;;;;1802235;78;21535;-60
2021/12/22 08:25:32;;;;;;;11.05;7.90;;;;;;;;;;1800370;78;20954;-64
2021/12/22 08:28:14;;;;;;;12.90;7.53;;;;;;;;;;1804590;78;20986;-61
2021/12/22 08:30:40;;;;;;;10.35;7.03;;;;;;;;;;1809358;78;20850;-61
2021/12/22 08:33:15;;;;;;;10.85;6.58;;;;;;;;;;1798121;78;21162;-60
2021/12/22 08:38:50;;;;;;;11.63;7.40;;;;;;;;;;1793709;78;20942;-61
2021/12/22 08:40:32;;;;;;;12.23;7.20;;;;;;;;;;1717746;82;21065;-61
2021/12/22 08:42:58;;;;;;;9.53;7.72;;;;;;;;;;1766520;80;22351;-59
2021/12/22 08:45:24;;;;;;;10.20;7.58;;;;;;;;;;1764088;80;21142;-62
2021/12/22 08:47:50;;;;;;;12.93;8.38;;;;;;;;;;1737437;82;21034;-61
2021/12/22 08:50:17;;;;;;;12.18;8.18;;;;;;;;;;1765347;80;20969;-60
2021/12/22 08:52:43;;;;;;;13.72;8.93;;;;;;;;;;1764794;80;20971;-61
2021/12/22 08:55:10;;;;;;;10.15;7.17;;;;;;;;;;1761437;80;20881;-58
2021/12/22 08:57:36;;;;;;;13.50;8.73;;;;;;;;;;1731130;82;22348;-61
2021/12/22 09:00:09;;;;;;;14.58;8.48;;;;;;;;;;1720440;82;21129;-59
2021/12/22 09:02:37;;;;;;;12.53;7.97;;;;;;;;;;1768563;80;20990;-60
2021/12/22 09:05:23;;;;;;;12.20;7.20;;;;;;;;;;1761724;81;21560;-60
2021/12/22 09:08:07;;;;;;;13.68;7.08;;;;;;;;;;1733717;82;20981;-59
2021/12/22 09:10:34;;;;;;;10.25;7.20;;;;;;;;;;1734981;81;21161;-60
2021/12/22 09:13:00;;;;;;;10.75;7.08;;;;;;;;;;1763598;80;21036;-60
2021/12/22 09:15:26;;;;;;;10.40;6.92;;;;;;;;;;1757091;80;20994;-60
2021/12/22 09:17:52;;;;;;;11.45;7.25;;;;;;;;;;1759945;80;20988;-60
2021/12/22 09:20:19;;;;;;;11.43;7.05;;;;;;;;;;1758912;80;20855;-60
2021/12/22 09:22:45;;;;;;;12.90;7.83;;;;;;;;;;1767387;80;21157;-61
2021/12/22 09:25:11;;;;;;;16.17;7.40;;;;;;;;;;1767008;80;21064;-62
2021/12/22 09:27:37;;;;;;;15.93;8.20;;;;;;;;;;1727759;81;20950;-61
2021/12/22 09:30:05;;;;;;;11.43;6.92;;;;;;;;;;1721357;82;21053;-61
2021/12/22 09:32:31;;;;;;;9.50;7.15;;;;;;;;;;1768069;80;21065;-60
2021/12/22 09:34:57;;;;;;;10.23;6.87;;;;;;;;;;1804051;78;21177;-63
2021/12/22 09:37:25;;;;;;;8.20;6.17;;;;;;;;;;1763029;80;20939;-66
2021/12/22 09:39:51;;;;;;;9.28;6.10;;;;;;;;;;1803532;78;21081;-62
2021/12/22 09:42:17;;;;;;;9.00;6.22;;;;;;;;;;1767393;80;20988;-61
2021/12/22 09:44:46;;;;;;;7.85;5.83;;;;;;;;;;1762790;80;21010;-60
2021/12/22 09:47:14;;;;;;;8.20;6.53;;;;;;;;;;1803188;78;21105;-60
2021/12/22 09:52:17;;;;;;;10.15;6.97;;;;;;;;;;1804265;78;20957;-63
2021/12/22 09:54:43;;;;;;;11.93;7.37;;;;;;;;;;1801636;78;20890;-60
2021/12/22 09:57:10;;;;;;;8.45;6.40;;;;;;;;;;1806438;78;20879;-60
2021/12/22 09:59:37;;;;;;;8.88;6.10;;;;;;;;;;1810465;78;21237;-60
2021/12/22 10:02:03;;;;;;;7.42;6.17;;;;;;;;;;1810938;78;20993;-60
2021/12/22 10:04:31;;;;;;;8.98;6.62;;;;;;;;;;1800343;78;21044;-61
2021/12/22 10:06:57;;;;;;;8.80;6.33;;;;;;;;;;1805771;78;21547;-61
2021/12/22 10:09:24;;;;;;;9.13;6.12;;;;;;;;;;1808493;78;20973;-62
2021/12/22 10:11:50;;;;;;;6.47;4.80;;;;;;;;;;1807817;78;21188;-62
2021/12/22 10:14:20;;;;;;;10.82;5.65;;;;;;;;;;1808421;78;20941;-63
2021/12/22 10:16:50;;;;;;;7.12;5.25;;;;;;;;;;1762234;80;21437;-64
2021/12/22 10:19:17;;;;;;;6.17;4.85;;;;;;;;;;1810575;78;20883;-63
2021/12/22 10:21:59;;;;;;;10.72;5.80;;;;;;;;;;1807672;78;20926;-66
2021/12/22 10:24:40;;;;;;;8.60;5.47;;;;;;;;;;1814073;78;21211;-63
2021/12/22 10:27:12;;;;;;;9.40;6.65;;;;;;;;;;1762669;80;20974;-64
2021/12/22 10:29:38;;;;;;;13.68;8.45;;;;;;;;;;1784720;78;20922;-66
2021/12/22 10:32:13;;;;;;;17.40;9.93;;;;;;;;;;1813461;78;21527;-64
2021/12/22 10:35:00;;;;;;;14.40;8.68;;;;;;;;;;1811383;78;21401;-65
2021/12/22 10:37:37;;;;;;;14.47;8.40;;;;;;;;;;1798469;78;21449;-64
2021/12/22 10:40:28;;;;;;;11.85;8.25;;;;;;;;;;1763184;80;21021;-64
2021/12/22 10:42:54;;;;;;;10.50;7.40;;;;;;;;;;1823778;78;20922;-62
2021/12/22 10:45:22;;;;;;;10.48;6.30;;;;;;;;;;1809235;78;20945;-65
2021/12/22 10:50:35;;;;;;;7.40;5.87;;;;;;;;;;1796517;78;21166;-61
2021/12/22 10:53:01;;;;;;;8.38;5.95;;;;;;;;;;1809273;78;20977;-62
2021/12/22 10:55:39;;;;;;;13.30;7.15;;;;;;;;;;1768932;80;21435;-62
2021/12/22 10:58:30;;;;;;;11.35;6.45;;;;;;;;;;1761259;80;21018;-61
2021/12/22 11:01:08;;;;;;;8.68;5.47;;;;;;;;;;1800533;78;20930;-63
2021/12/22 11:03:39;;;;;;;6.42;5.05;;;;;;;;;;1811051;78;21180;-65
2021/12/22 11:06:23;;;;;;;7.22;4.62;;;;;;;;;;1795154;78;20929;-64
2021/12/22 11:08:56;;;;;;;5.72;4.80;;;;;;;;;;1746287;80;20902;-62
2021/12/22 11:11:22;;;;;;;6.03;4.08;;;;;;;;;;1805821;78;21524;-63
2021/12/22 11:13:55;;;;;;;5.47;3.92;;;;;;;;;;1807434;78;20889;-65
2021/12/22 11:16:21;;;;;;;5.95;4.20;;;;;;;;;;1801529;78;21869;-62
2021/12/22 11:18:47;;;;;;;9.98;4.92;;;;;;;;;;1802480;78;20962;-65
2021/12/22 11:21:23;;;;;;;8.15;5.12;;;;;;;;;;1798683;78;20898;-62
2021/12/22 11:23:46;;;;;;;5.35;4.65;;;;;;;;;;1800670;78;21087;-65
2021/12/22 11:26:12;;;;;;;7.80;5.20;;;;;;;;;;1806939;78;20910;-65
2021/12/22 11:28:38;;;;;;;9.13;6.15;;;;;;;;;;1802648;78;21376;-68
2021/12/22 11:31:07;;;;;;;13.70;7.62;;;;;;;;;;1809423;78;20919;-63
2021/12/22 11:33:33;;;;;;;9.10;6.85;;;;;;;;;;1806646;78;20993;-61
2021/12/22 11:36:01;;;;;;;15.60;10.88;;;;;;;;;;1780228;79;21500;-66
2021/12/22 11:38:28;;;;;;;16.85;10.98;;;;;;;;;;1802340;78;20918;-64
2021/12/22 11:41:08;;;;;;;7.92;6.37;;;;;;;;;;1764908;80;21928;-61
2021/12/22 11:43:25;;;;;;;6.40;4.95;;;;;;;;;;1794179;78;20969;-65
2021/12/22 11:45:51;;;;;;;7.83;5.53;;;;;;;;;;1770242;80;20970;-64
2021/12/22 11:48:17;;;;;;;7.00;5.37;;;;;;;;;;1805680;78;20921;-65
2021/12/22 11:50:45;;;;;;;7.53;5.87;;;;;;;;;;1800449;78;20926;-65
2021/12/22 11:53:12;;;;;;;7.87;6.22;;;;;;;;;;1811178;78;21826;-68
2021/12/22 11:55:45;;;;;;;7.03;5.28;;;;;;;;;;1801773;78;21429;-58
2021/12/22 11:58:21;;;;;;;8.93;6.03;;;;;;;;;;1798497;78;20965;-70
2021/12/22 12:00:57;;;;;;;8.48;6.28;;;;;;;;;;1812235;78;21503;-67
2021/12/22 12:03:36;;;;;;;8.38;7.25;;;;;;;;;;1803001;78;20915;-69
2021/12/22 12:06:09;;;;;;;13.45;9.13;;;;;;;;;;1773234;79;21338;-68
2021/12/22 12:08:56;;;;;;;12.23;7.80;;;;;;;;;;1807847;78;20933;-62
2021/12/22 12:11:46;;;;;;;10.75;7.22;;;;;;;;;;1796041;78;20949;-70
2021/12/22 12:23:23;;;;;;;10.82;6.65;;;;;;;;;;1801332;78;21019;-64
2021/12/22 12:25:49;;;;;;;14.63;9.08;;;;;;;;;;1764859;80;20981;-64
2021/12/22 12:28:17;;;;;;;14.73;9.53;;;;;;;;;;1768204;80;21548;-65
2021/12/22 12:30:48;;;;;;;14.85;7.80;;;;;;;;;;1805360;78;21483;-68
2021/12/22 12:33:27;;;;;;;19.77;10.40;;;;;;;;;;1812072;78;21199;-64
2021/12/22 12:36:05;;;;;;;20.65;10.93;;;;;;;;;;1804979;78;20978;-61
2021/12/22 12:38:49;;;;;;;23.83;13.05;;;;;;;;;;1810583;78;20875;-63
2021/12/22 12:41:17;;;;;;;22.45;13.08;;;;;;;;;;1808885;78;21504;-64
2021/12/22 12:43:51;;;;;;;18.67;12.60;;;;;;;;;;1803990;78;21471;-64
2021/12/22 12:46:24;;;;;;;20.97;12.23;;;;;;;;;;1817276;78;23296;-70
2021/12/22 12:49:06;;;;;;;20.97;13.15;;;;;;;;;;1801642;78;20834;-64
2021/12/22 12:51:36;;;;;;;16.73;9.93;;;;;;;;;;1805493;78;20930;-70
2021/12/22 12:54:08;;;;;;;14.53;9.93;;;;;;;;;;1792210;78;21491;-67
2021/12/22 12:56:42;;;;;;;15.88;9.78;;;;;;;;;;1801411;78;21031;-74
2021/12/22 12:59:12;;;;;;;19.25;11.90;;;;;;;;;;1809273;78;21134;-71
2021/12/22 13:01:51;;;;;;;22.00;11.18;;;;;;;;;;1803053;78;20914;-70
2021/12/22 13:04:24;;;;;;;22.50;12.68;;;;;;;;;;1799933;78;20890;-65
2021/12/22 13:06:55;;;;;;;27.70;13.58;;;;;;;;;;1808117;78;21000;-68
2021/12/22 13:09:26;;;;;;;25.85;13.58;;;;;;;;;;1808230;78;20854;-64
2021/12/22 13:17:17;;;;;;;20.12;11.73;;;;;;;;;;1806013;78;21433;-68
2021/12/22 13:19:44;;;;;;;14.47;10.60;;;;;;;;;;1811902;78;20942;-69
2021/12/22 13:22:20;;;;;;;13.70;9.63;;;;;;;;;;1808558;78;21016;-67
2021/12/22 13:24:47;;;;;;;14.05;8.83;;;;;;;;;;1801011;78;22399;-66
2021/12/22 13:27:30;;;;;;;16.90;10.53;;;;;;;;;;1805263;78;20981;-66
2021/12/22 13:30:13;;;;;;;12.82;9.25;;;;;;;;;;1805899;78;20930;-66
2021/12/22 13:32:59;;;;;;;15.13;9.73;;;;;;;;;;1806783;78;21464;-67
2021/12/22 13:35:46;;;;;;;14.18;11.05;;;;;;;;;;1807884;78;21444;-65
2021/12/22 13:38:30;;;;;;;15.90;11.85;;;;;;;;;;1762267;80;21770;-67
2021/12/22 13:41:06;;;;;;;17.73;12.70;;;;;;;;;;1771398;80;21531;-67
2021/12/22 13:43:44;;;;;;;13.60;11.18;;;;;;;;;;1806412;78;20910;-65
2021/12/22 13:46:20;;;;;;;13.10;10.18;;;;;;;;;;1792636;78;21020;-64
2021/12/22 13:49:04;;;;;;;10.18;8.25;;;;;;;;;;1806061;78;20870;-64
2021/12/22 13:51:37;;;;;;;9.60;7.37;;;;;;;;;;1803819;78;21154;-64
2021/12/22 13:54:10;;;;;;;8.50;6.90;;;;;;;;;;1756385;80;20911;-66
2021/12/22 13:56:36;;;;;;;9.00;7.45;;;;;;;;;;1808621;78;20930;-66
2021/12/22 13:59:04;;;;;;;12.80;10.05;;;;;;;;;;1798270;78;21531;-65
2021/12/22 14:01:42;;;;;;;14.93;11.48;;;;;;;;;;1807306;78;21369;-65
2021/12/22 14:04:19;;;;;;;17.20;13.15;;;;;;;;;;1804116;78;21813;-65
2021/12/22 14:06:49;;;;;;;19.80;14.18;;;;;;;;;;1799409;78;21555;-65
2021/12/22 14:09:21;;;;;;;16.15;12.58;;;;;;;;;;1796419;78;20973;-65
2021/12/22 14:11:49;;;;;;;13.40;11.05;;;;;;;;;;1762273;80;21555;-66
2021/12/22 14:14:33;;;;;;;14.05;10.25;;;;;;;;;;1760956;79;21444;-66
2021/12/22 14:17:06;;;;;;;11.22;9.28;;;;;;;;;;1803019;78;21137;-63
2021/12/22 14:19:57;;;;;;;10.93;8.70;;;;;;;;;;1773663;79;21049;-64
2021/12/22 14:22:28;;;;;;;10.95;8.53;;;;;;;;;;1809064;78;21096;-65
2021/12/22 14:25:02;;;;;;;10.58;8.53;;;;;;;;;;1767848;80;20950;-65
2021/12/22 14:27:39;;;;;;;11.22;7.30;;;;;;;;;;1797333;78;20985;-64
2021/12/22 14:30:08;;;;;;;11.43;6.70;;;;;;;;;;1791846;78;21273;-64
2021/12/22 14:32:37;;;;;;;8.40;6.55;;;;;;;;;;1773562;80;21724;-64
2021/12/22 14:35:13;;;;;;;9.85;6.72;;;;;;;;;;1743924;80;22210;-65
2021/12/22 14:37:42;;;;;;;8.10;5.50;;;;;;;;;;1702562;82;21010;-65
2021/12/22 14:40:14;;;;;;;8.03;6.30;;;;;;;;;;1698531;82;21017;-65
2021/12/22 14:42:41;;;;;;;8.88;6.42;;;;;;;;;;1700396;83;21811;-64
2021/12/22 14:45:22;;;;;;;9.10;6.00;;;;;;;;;;1691152;83;21009;-64
2021/12/22 14:48:05;;;;;;;9.00;7.15;;;;;;;;;;1684798;84;20914;-61
2021/12/22 14:50:32;;;;;;;11.78;7.22;;;;;;;;;;1712379;83;21270;-62
2021/12/22 14:53:01;;;;;;;9.15;7.45;;;;;;;;;;1746294;81;21002;-63
2021/12/22 14:55:46;;;;;;;9.85;6.85;;;;;;;;;;1742861;81;21165;-61
2021/12/22 14:58:13;;;;;;;11.33;6.78;;;;;;;;;;1745864;81;20992;-62
2021/12/22 15:00:43;;;;;;;9.20;7.42;;;;;;;;;;1743647;81;20959;-62
2021/12/22 15:03:09;;;;;;;11.18;8.35;;;;;;;;;;1744829;81;21579;-63
2021/12/22 15:05:35;;;;;;;19.80;12.00;;;;;;;;;;1747874;81;21018;-64
2021/12/22 15:08:02;;;;;;;17.95;12.93;;;;;;;;;;1712628;83;21156;-61
2021/12/22 15:10:28;;;;;;;19.70;14.05;;;;;;;;;;1704826;83;20946;-61
2021/12/22 15:12:54;;;;;;;27.93;18.57;;;;;;;;;;1745526;81;20964;-65
2021/12/22 15:15:21;;;;;;;22.37;15.65;;;;;;;;;;1747076;81;20999;-68
2021/12/22 15:17:47;;;;;;;23.73;16.37;;;;;;;;;;1711992;82;21413;-61
2021/12/22 15:20:13;;;;;;;27.25;17.42;;;;;;;;;;1736594;81;21213;-63